Time;durP1;ratioP1;P1;durP2;ratioP2;P2;SDS_P1;SDS_P2;PMS_P1;PMS_P2;Temp;Humidity;BMP_temperature;BMP_pressure;BME280_temperature;BME280_humidity;BME280_pressure;Samples;Min_cycle;Max_cycle;Signal;HPM_P1;HPM_P2
2022/04/12 00:00:35;;;;;;;5.47;4.97;;;10.80;39.70;;;;;;20774;6733;117311;-71
2022/04/12 00:03:11;;;;;;;6.20;5.70;;;10.90;39.80;;;;;;20745;6711;333156;-71
2022/04/12 00:05:46;;;;;;;5.13;4.63;;;11.10;39.60;;;;;;20906;6737;117140;-71
2022/04/12 00:08:22;;;;;;;5.72;5.32;;;11.10;39.60;;;;;;20689;6734;277587;-71
2022/04/12 00:10:58;;;;;;;5.97;5.57;;;11.20;39.00;;;;;;20860;6719;117091;-71
2022/04/12 00:13:33;;;;;;;5.13;4.73;;;11.20;39.20;;;;;;20968;6713;116753;-71
2022/04/12 00:16:09;;;;;;;5.40;5.00;;;10.70;40.60;;;;;;20967;6713;116880;-71
2022/04/12 00:19:05;;;;;;;5.75;5.35;;;10.70;39.90;;;;;;20743;6713;275209;-71
2022/04/12 00:21:40;;;;;;;5.90;5.50;;;10.90;39.20;;;;;;20636;6713;278385;-71
2022/04/12 00:24:16;;;;;;;5.50;5.10;;;11.30;38.60;;;;;;20910;6734;116655;-72
2022/04/12 00:26:51;;;;;;;5.50;5.10;;;11.20;38.80;;;;;;20911;6734;117137;-71
2022/04/12 00:29:28;;;;;;;5.30;4.87;;;10.90;39.30;;;;;;20901;6734;116881;-71
2022/04/12 00:32:02;;;;;;;5.47;5.10;;;10.70;39.80;;;;;;20507;6790;309840;-72
2022/04/12 00:34:38;;;;;;;5.73;5.33;;;10.80;39.60;;;;;;20938;6719;117156;-71
2022/04/12 00:37:14;;;;;;;5.53;5.13;;;10.80;39.70;;;;;;20957;6719;116726;-71
2022/04/12 00:39:49;;;;;;;5.97;5.47;;;10.50;40.00;;;;;;20718;6719;276075;-72
2022/04/12 00:42:25;;;;;;;5.87;5.47;;;10.80;40.20;;;;;;20750;6708;307745;-72
2022/04/12 00:45:00;;;;;;;5.47;5.10;;;11.10;40.00;;;;;;20983;6708;120737;-71
2022/04/12 00:47:36;;;;;;;5.57;5.10;;;11.00;40.10;;;;;;20982;6708;121007;-72
2022/04/12 00:50:12;;;;;;;5.23;4.83;;;10.70;40.50;;;;;;20863;6734;117549;-72
2022/04/12 00:52:48;;;;;;;5.72;5.22;;;10.40;40.90;;;;;;20740;6712;338025;-71
2022/04/12 00:55:24;;;;;;;5.63;5.13;;;10.60;41.20;;;;;;20969;6712;120594;-72
2022/04/12 00:58:05;;;;;;;5.07;4.77;;;10.60;41.10;;;;;;20963;6712;116803;-71
2022/04/12 01:00:35;;;;;;;5.17;4.87;;;10.40;41.40;;;;;;20885;6713;116980;-72
2022/04/12 01:03:11;;;;;;;5.60;5.20;;;10.50;40.90;;;;;;20773;6705;334282;-71
2022/04/12 01:05:47;;;;;;;5.13;4.77;;;10.50;40.90;;;;;;21046;6691;117160;-71
2022/04/12 01:08:23;;;;;;;5.53;5.10;;;10.70;40.70;;;;;;20742;6718;335874;-73
2022/04/12 01:11:04;;;;;;;5.20;4.80;;;10.70;40.70;;;;;;20816;6726;117403;-72
2022/04/12 01:13:34;;;;;;;5.70;5.20;;;10.60;40.70;;;;;;20730;6721;312428;-72
2022/04/12 01:16:11;;;;;;;5.53;5.12;;;11.10;39.90;;;;;;20725;6721;306466;-71
2022/04/12 01:18:46;;;;;;;4.70;4.40;;;11.10;39.90;;;;;;20925;6721;120309;-72
2022/04/12 01:21:22;;;;;;;5.80;5.35;;;11.00;40.20;;;;;;20639;6721;341532;-72
2022/04/12 01:24:03;;;;;;;5.82;5.32;;;11.10;40.10;;;;;;20783;6705;303970;-72
2022/04/12 01:26:39;;;;;;;5.30;4.90;;;11.30;39.80;;;;;;20883;6736;116958;-71
2022/04/12 01:29:15;;;;;;;5.57;5.18;;;11.10;40.00;;;;;;20720;6726;277502;-72
2022/04/12 01:31:50;;;;;;;5.13;4.70;;;11.20;39.70;;;;;;20749;6727;117190;-72
2022/04/12 01:34:32;;;;;;;5.28;4.90;;;11.00;40.00;;;;;;20702;6733;305608;-72
2022/04/12 01:37:02;;;;;;;5.33;5.00;;;11.00;40.80;;;;;;21021;6706;117444;-72
2022/04/12 01:39:37;;;;;;;4.57;4.27;;;10.90;40.90;;;;;;20863;6723;117188;-72
2022/04/12 01:42:12;;;;;;;4.37;4.07;;;10.60;41.30;;;;;;20940;6721;120634;-72
2022/04/12 01:44:49;;;;;;;5.30;5.00;;;10.50;41.40;;;;;;20669;6731;335278;-72
2022/04/12 01:47:24;;;;;;;5.47;5.10;;;10.50;41.40;;;;;;20685;6732;278571;-72
2022/04/12 01:50:01;;;;;;;4.80;4.50;;;10.80;40.80;;;;;;20869;6744;116933;-72
2022/04/12 01:52:37;;;;;;;4.57;4.37;;;10.70;41.10;;;;;;20756;6708;334430;-72
2022/04/12 01:55:12;;;;;;;4.67;4.37;;;10.70;41.50;;;;;;20986;6706;117935;-72
2022/04/12 01:57:50;;;;;;;5.07;4.57;;;10.60;41.60;;;;;;20727;6733;277092;-72
2022/04/12 02:00:27;;;;;;;5.70;5.30;;;10.90;40.60;;;;;;20665;6716;283293;-72
2022/04/12 02:03:00;;;;;;;5.33;5.03;;;10.90;40.40;;;;;;20818;6694;294111;-72
2022/04/12 02:05:35;;;;;;;5.10;4.60;;;11.00;40.00;;;;;;21029;6693;117685;-72
2022/04/12 02:08:11;;;;;;;5.30;5.00;;;10.70;40.40;;;;;;20809;6693;320300;-72
2022/04/12 02:10:47;;;;;;;5.10;4.70;;;10.60;40.30;;;;;;20611;6720;337614;-72
2022/04/12 02:13:22;;;;;;;5.00;4.60;;;10.80;40.20;;;;;;20935;6723;116958;-72
2022/04/12 02:15:58;;;;;;;5.55;5.05;;;10.50;40.70;;;;;;20775;6706;305539;-73
2022/04/12 02:18:33;;;;;;;5.10;4.80;;;10.60;40.70;;;;;;20753;6706;276500;-72
2022/04/12 02:21:09;;;;;;;5.17;4.80;;;10.80;40.30;;;;;;20577;6731;279532;-72
2022/04/12 02:23:44;;;;;;;4.50;4.20;;;11.00;40.00;;;;;;20917;6728;117334;-72
2022/04/12 02:26:21;;;;;;;5.07;4.67;;;10.70;40.30;;;;;;20870;6728;117452;-72
2022/04/12 02:28:57;;;;;;;5.30;4.90;;;10.30;41.00;;;;;;20729;6731;309086;-72
2022/04/12 02:31:32;;;;;;;4.83;4.53;;;10.30;40.50;;;;;;20763;6746;117407;-72
2022/04/12 02:34:08;;;;;;;5.30;5.00;;;10.20;40.80;;;;;;20785;6701;277175;-72
2022/04/12 02:36:43;;;;;;;4.60;4.37;;;10.30;40.70;;;;;;20980;6716;116539;-72
2022/04/12 02:39:19;;;;;;;5.20;4.90;;;10.20;40.90;;;;;;20747;6716;307921;-72
2022/04/12 02:41:55;;;;;;;5.50;5.00;;;10.30;41.10;;;;;;20578;6716;278338;-72
2022/04/12 02:44:30;;;;;;;5.10;4.80;;;10.50;40.40;;;;;;20768;6702;276088;-72
2022/04/12 02:47:06;;;;;;;4.40;4.17;;;10.70;40.10;;;;;;20911;6732;117524;-72
2022/04/12 02:49:41;;;;;;;5.17;4.43;;;10.40;40.60;;;;;;20954;6716;116948;-72
2022/04/12 02:52:17;;;;;;;4.20;3.93;;;10.10;41.40;;;;;;21058;6688;120565;-72
2022/04/12 02:54:52;;;;;;;4.70;4.30;;;9.80;43.20;;;;;;20819;6686;275554;-72
2022/04/12 02:57:28;;;;;;;3.87;3.33;;;9.90;43.40;;;;;;21046;6687;116584;-72
2022/04/12 03:00:05;;;;;;;4.20;3.90;;;9.90;43.40;;;;;;20801;6687;335411;-72
2022/04/12 03:02:42;;;;;;;3.77;3.57;;;10.00;41.80;;;;;;21029;6687;116946;-72
2022/04/12 03:05:22;;;;;;;4.53;4.17;;;10.00;41.50;;;;;;20829;6687;305711;-72
2022/04/12 03:07:54;;;;;;;4.80;4.50;;;9.90;42.40;;;;;;20828;6687;338564;-72
2022/04/12 03:10:31;;;;;;;4.60;4.20;;;9.90;42.80;;;;;;20957;6687;117885;-72
2022/04/12 03:13:06;;;;;;;4.50;4.10;;;9.90;42.30;;;;;;21005;6702;117667;-72
2022/04/12 03:15:42;;;;;;;3.80;3.50;;;9.60;43.00;;;;;;21004;6701;117561;-72
2022/04/12 03:18:17;;;;;;;4.55;4.25;;;9.30;43.60;;;;;;20718;6716;306532;-72
2022/04/12 03:20:53;;;;;;;4.32;4.03;;;9.40;43.90;;;;;;20638;6714;344688;-71
2022/04/12 03:23:29;;;;;;;4.73;4.37;;;9.70;44.00;;;;;;20947;6720;116590;-71
2022/04/12 03:26:04;;;;;;;4.00;3.80;;;9.60;44.10;;;;;;20758;6720;335304;-71
2022/04/12 03:28:41;;;;;;;4.75;4.30;;;9.70;43.90;;;;;;20742;6708;338521;-72
2022/04/12 03:31:18;;;;;;;3.87;3.60;;;9.90;43.00;;;;;;20874;6712;117843;-72
2022/04/12 03:33:53;;;;;;;3.87;3.67;;;9.80;43.40;;;;;;20996;6703;118091;-72
2022/04/12 03:36:29;;;;;;;3.77;3.47;;;9.40;44.00;;;;;;20903;6730;117167;-72
2022/04/12 03:39:05;;;;;;;4.20;4.00;;;9.20;44.60;;;;;;20701;6730;340043;-72
2022/04/12 03:41:40;;;;;;;4.10;3.87;;;9.30;44.20;;;;;;20772;6727;116815;-73
2022/04/12 03:44:16;;;;;;;4.13;3.83;;;9.20;44.10;;;;;;20943;6712;120468;-68
2022/04/12 03:46:54;;;;;;;4.50;4.13;;;9.00;44.60;;;;;;20795;6762;117297;-71
2022/04/12 03:49:27;;;;;;;5.00;4.70;;;8.80;44.90;;;;;;20713;6732;334773;-69
2022/04/12 03:52:02;;;;;;;4.33;3.97;;;9.00;44.80;;;;;;20604;6826;117774;-69
2022/04/12 03:54:38;;;;;;;4.75;4.40;;;9.00;44.60;;;;;;20627;6745;307204;-69
2022/04/12 03:57:14;;;;;;;4.47;4.18;;;9.20;44.50;;;;;;20710;6725;304711;-69
2022/04/12 03:59:49;;;;;;;4.30;4.00;;;9.50;44.10;;;;;;20920;6710;116823;-69
2022/04/12 04:02:25;;;;;;;4.23;3.93;;;9.40;44.20;;;;;;20721;6741;339135;-70
2022/04/12 04:05:00;;;;;;;4.20;3.90;;;9.40;44.80;;;;;;21004;6717;120580;-69
2022/04/12 04:07:38;;;;;;;3.93;3.73;;;9.40;44.90;;;;;;20666;6731;335157;-68
2022/04/12 04:10:13;;;;;;;4.80;4.30;;;9.40;44.70;;;;;;20599;6747;337311;-69
2022/04/12 04:12:49;;;;;;;4.90;4.50;;;9.70;43.80;;;;;;20955;6711;118534;-68
2022/04/12 04:15:24;;;;;;;6.10;4.55;;;9.50;43.80;;;;;;20739;6717;334981;-68
2022/04/12 04:18:03;;;;;;;4.83;4.43;;;9.50;43.70;;;;;;20951;6717;116606;-68
2022/04/12 04:20:36;;;;;;;5.07;4.70;;;9.40;44.10;;;;;;20565;6717;307552;-70
2022/04/12 04:23:12;;;;;;;4.90;4.60;;;9.40;44.70;;;;;;20863;6748;117357;-69
2022/04/12 04:25:47;;;;;;;5.27;4.77;;;9.20;44.20;;;;;;20853;6751;118500;-69
2022/04/12 04:28:28;;;;;;;4.70;4.40;;;9.00;44.80;;;;;;20825;6735;118820;-71
2022/04/12 04:30:58;;;;;;;5.57;5.18;;;8.70;45.20;;;;;;20620;6719;342008;-70
2022/04/12 04:33:34;;;;;;;5.20;4.90;;;8.90;45.10;;;;;;20906;6744;117288;-71
2022/04/12 04:36:10;;;;;;;6.07;5.57;;;8.90;45.00;;;;;;20703;6720;336117;-70
2022/04/12 04:38:45;;;;;;;5.47;5.07;;;9.10;44.80;;;;;;20631;6749;278632;-69
2022/04/12 04:41:21;;;;;;;5.67;5.27;;;9.40;44.20;;;;;;20716;6758;117156;-69
2022/04/12 04:43:56;;;;;;;5.10;4.70;;;9.30;44.30;;;;;;20825;6743;120667;-69
2022/04/12 04:46:32;;;;;;;5.63;5.17;;;9.00;44.80;;;;;;20865;6738;116779;-70
2022/04/12 04:49:07;;;;;;;6.30;5.90;;;8.80;45.30;;;;;;20692;6722;336173;-69
2022/04/12 04:51:44;;;;;;;5.20;4.80;;;8.90;45.00;;;;;;20664;6755;123084;-69
2022/04/12 04:54:30;;;;;;;;;;;;;;;;;;;;;
2022/04/12 04:56:57;;;;;;;6.10;5.57;;;9.10;45.10;;;;;;20774;6759;119478;-69
2022/04/12 04:59:33;;;;;;;6.63;6.13;;;9.10;45.20;;;;;;20857;6752;116929;-69
2022/04/12 05:02:11;;;;;;;6.13;5.73;;;8.60;45.70;;;;;;20884;6741;117819;-70
2022/04/12 05:04:47;;;;;;;9.18;8.27;;;8.60;45.70;;;;;;20700;6708;334352;-71
2022/04/12 05:07:25;;;;;;;8.55;7.95;;;8.90;45.40;;;;;;20718;6722;276678;-70
2022/04/12 05:10:02;;;;;;;8.43;7.82;;;9.30;45.10;;;;;;20703;6720;307005;-74
2022/04/12 05:12:39;;;;;;;8.90;8.20;;;9.60;44.40;;;;;;20753;6706;294701;-70
2022/04/12 05:15:16;;;;;;;7.57;6.77;;;9.80;43.70;;;;;;21004;6698;117715;-69
2022/04/12 05:18:01;;;;;;;6.93;6.43;;;9.60;44.10;;;;;;20986;6755;116306;-69
2022/04/12 05:20:27;;;;;;;6.63;6.23;;;9.30;44.90;;;;;;20949;6698;116879;-70
2022/04/12 05:23:04;;;;;;;7.83;7.17;;;9.20;45.50;;;;;;20794;6698;301844;-68
2022/04/12 05:25:39;;;;;;;4.63;4.30;;;9.20;45.40;;;;;;20967;6713;117763;-68
2022/04/12 05:28:15;;;;;;;4.67;4.37;;;9.20;46.10;;;;;;20966;6713;119638;-70
2022/04/12 05:30:50;;;;;;;5.65;5.25;;;9.10;45.90;;;;;;20583;6735;336923;-70
2022/04/12 05:33:26;;;;;;;4.68;4.37;;;9.30;45.70;;;;;;20740;6720;276522;-70
2022/04/12 05:36:04;;;;;;;5.00;4.60;;;9.70;44.90;;;;;;20674;6727;281776;-70
2022/04/12 05:38:37;;;;;;;4.60;4.30;;;10.00;42.70;;;;;;20684;6743;306391;-70
2022/04/12 05:41:13;;;;;;;4.23;3.93;;;10.30;42.40;;;;;;20835;6718;117553;-70
2022/04/12 05:43:49;;;;;;;4.70;4.27;;;10.10;42.90;;;;;;20961;6721;119085;-70
2022/04/12 05:46:25;;;;;;;4.93;4.63;;;9.80;44.60;;;;;;20717;6707;308025;-72
2022/04/12 05:49:01;;;;;;;4.50;4.20;;;9.90;44.40;;;;;;21041;6689;116640;-70
2022/04/12 05:51:37;;;;;;;4.30;4.10;;;9.70;45.10;;;;;;20837;6700;116964;-68
2022/04/12 05:54:13;;;;;;;4.53;4.23;;;9.70;45.10;;;;;;20897;6745;116763;-68
2022/04/12 05:56:49;;;;;;;4.75;4.45;;;9.50;45.40;;;;;;20683;6728;290714;-69
2022/04/12 05:59:25;;;;;;;4.73;4.43;;;9.70;45.30;;;;;;20630;6746;306664;-68
2022/04/12 06:02:00;;;;;;;4.85;4.50;;;10.10;44.10;;;;;;20429;6824;307968;-68
2022/04/12 06:04:36;;;;;;;5.07;4.57;;;10.50;43.80;;;;;;20869;6738;119644;-69
2022/04/12 06:07:12;;;;;;;4.40;4.00;;;10.40;43.80;;;;;;20916;6730;117330;-73
2022/04/12 06:09:47;;;;;;;4.10;3.80;;;10.10;44.10;;;;;;20929;6715;117021;-70
2022/04/12 06:12:23;;;;;;;4.55;4.25;;;9.90;46.20;;;;;;20700;6730;306480;-71
2022/04/12 06:14:58;;;;;;;4.27;3.97;;;10.00;44.20;;;;;;20967;6715;117903;-74
2022/04/12 06:17:35;;;;;;;4.55;4.25;;;10.30;44.70;;;;;;20740;6730;334735;-70
2022/04/12 06:20:17;;;;;;;4.97;4.57;;;10.30;44.70;;;;;;20663;6730;306701;-70
2022/04/12 06:22:53;;;;;;;4.37;4.07;;;10.70;44.10;;;;;;20899;6730;117386;-72
2022/04/12 06:25:29;;;;;;;4.75;4.35;;;10.80;44.40;;;;;;20761;6712;335078;-73
2022/04/12 06:28:08;;;;;;;4.17;3.77;;;11.10;43.20;;;;;;20901;6740;117009;-72
2022/04/12 06:30:55;;;;;;;4.03;3.63;;;11.20;43.80;;;;;;20722;6742;124127;-70
2022/04/12 06:33:27;;;;;;;3.47;3.27;;;11.30;44.60;;;;;;20846;6734;70559;-69
2022/04/12 06:36:03;;;;;;;4.40;3.40;;;11.40;45.20;;;;;;20775;6764;121875;-69
2022/04/12 06:38:35;;;;;;;4.47;3.43;;;11.40;45.10;;;;;;20881;6731;117765;-70
2022/04/12 06:41:11;;;;;;;4.07;3.60;;;11.50;45.10;;;;;;20713;6747;117629;-70
2022/04/12 06:43:47;;;;;;;3.78;3.55;;;11.50;44.80;;;;;;20537;6758;312761;-73
2022/04/12 06:46:22;;;;;;;4.20;3.90;;;11.80;43.40;;;;;;20638;6750;334843;-70
2022/04/12 06:48:58;;;;;;;3.90;3.60;;;12.20;42.40;;;;;;20827;6742;117525;-70
2022/04/12 06:51:35;;;;;;;5.47;3.60;;;12.30;42.70;;;;;;20571;6729;307453;-70
2022/04/12 06:54:10;;;;;;;3.70;3.40;;;12.50;41.80;;;;;;20870;6740;116834;-76
2022/04/12 06:56:46;;;;;;;3.20;3.00;;;12.50;42.20;;;;;;20802;6753;116981;-76
2022/04/12 06:59:32;;;;;;;;;;;;;;;;;;;;;
2022/04/12 07:01:58;;;;;;;4.00;3.70;;;12.80;41.90;;;;;;20529;6724;307574;-74
2022/04/12 07:04:33;;;;;;;3.30;3.10;;;12.80;41.90;;;;;;20941;6724;116904;-72
2022/04/12 07:07:13;;;;;;;4.00;3.60;;;13.40;41.80;;;;;;20716;6722;304785;-75
2022/04/12 07:09:45;;;;;;;4.27;3.87;;;13.40;41.70;;;;;;20598;6752;277157;-72
2022/04/12 07:12:23;;;;;;;3.57;3.37;;;13.90;40.30;;;;;;20815;6750;117421;-74
2022/04/12 07:14:59;;;;;;;3.57;3.37;;;14.30;39.70;;;;;;20707;6724;279079;-73
2022/04/12 07:17:34;;;;;;;3.53;3.33;;;14.30;39.70;;;;;;20925;6724;117325;-73
2022/04/12 07:20:13;;;;;;;3.60;3.37;;;14.40;40.30;;;;;;20879;6724;116807;-74
2022/04/12 07:22:49;;;;;;;4.78;3.80;;;14.40;40.80;;;;;;20654;6739;312216;-75
2022/04/12 07:25:24;;;;;;;3.63;3.33;;;14.60;40.20;;;;;;20876;6739;120707;-72
2022/04/12 07:28:00;;;;;;;4.05;3.75;;;15.20;39.60;;;;;;20662;6744;297205;-72
2022/04/12 07:30:38;;;;;;;4.00;3.70;;;15.20;39.60;;;;;;20768;6742;127475;-73
2022/04/12 07:33:13;;;;;;;4.43;4.13;;;15.30;40.00;;;;;;20922;6708;117550;-73
2022/04/12 07:35:48;;;;;;;4.23;3.83;;;15.30;40.20;;;;;;20926;6727;116746;-74
2022/04/12 07:38:25;;;;;;;4.57;4.05;;;15.50;39.00;;;;;;20647;6727;279602;-75
2022/04/12 07:41:01;;;;;;;4.27;3.90;;;16.00;39.00;;;;;;20577;6727;312326;-73
2022/04/12 07:43:37;;;;;;;4.27;3.90;;;15.90;38.20;;;;;;20941;6714;116941;-73
2022/04/12 07:46:12;;;;;;;4.53;4.12;;;16.10;38.70;;;;;;20714;6720;276193;-74
2022/04/12 07:48:49;;;;;;;5.40;4.37;;;16.30;37.30;;;;;;20901;6726;116968;-71
2022/04/12 07:51:24;;;;;;;5.20;4.70;;;16.40;38.20;;;;;;20591;6718;277587;-74
2022/04/12 07:54:04;;;;;;;4.47;4.10;;;16.70;37.50;;;;;;20683;6726;318305;-73
2022/04/12 07:56:39;;;;;;;4.70;4.22;;;17.00;36.20;;;;;;20722;6721;334267;-74
2022/04/12 07:59:16;;;;;;;4.73;4.30;;;17.40;35.00;;;;;;20715;6721;280082;-73
2022/04/12 08:01:59;;;;;;;4.93;4.53;;;17.60;34.50;;;;;;20587;6707;306870;-73
2022/04/12 08:04:41;;;;;;;5.37;4.97;;;17.90;34.50;;;;;;20651;6727;333844;-76
2022/04/12 08:07:13;;;;;;;4.93;4.63;;;18.20;33.00;;;;;;20651;6738;275770;-72
2022/04/12 08:09:49;;;;;;;5.00;4.60;;;18.40;32.10;;;;;;20869;6724;117079;-73
2022/04/12 08:12:24;;;;;;;5.10;4.60;;;18.30;33.60;;;;;;20742;6710;275768;-76
2022/04/12 08:15:02;;;;;;;4.70;4.40;;;18.40;33.40;;;;;;20960;6711;117087;-73
2022/04/12 08:17:36;;;;;;;5.00;4.70;;;18.30;34.20;;;;;;20796;6695;305286;-72
2022/04/12 08:20:13;;;;;;;4.60;4.30;;;18.40;33.40;;;;;;20914;6710;121681;-72
2022/04/12 08:22:48;;;;;;;5.70;4.50;;;18.30;34.10;;;;;;20964;6703;119734;-73
2022/04/12 08:25:24;;;;;;;5.20;4.70;;;18.20;34.30;;;;;;20756;6708;338755;-72
2022/04/12 08:28:00;;;;;;;4.37;4.17;;;18.20;33.60;;;;;;20968;6708;117400;-72
2022/04/12 08:30:36;;;;;;;5.18;4.68;;;18.20;34.40;;;;;;20638;6708;308645;-72
2022/04/12 08:33:11;;;;;;;4.80;4.40;;;18.40;33.40;;;;;;20902;6729;117522;-72
2022/04/12 08:35:47;;;;;;;4.80;4.50;;;18.60;34.20;;;;;;20696;6721;276128;-71
2022/04/12 08:38:26;;;;;;;4.30;3.90;;;18.70;33.40;;;;;;20910;6724;116790;-75
2022/04/12 08:41:04;;;;;;;4.60;4.20;;;18.80;34.30;;;;;;20810;6726;121659;-70
2022/04/12 08:43:43;;;;;;;4.40;4.10;;;18.80;34.60;;;;;;20863;6727;118419;-71
2022/04/12 08:46:26;;;;;;;4.27;3.97;;;18.70;34.80;;;;;;20947;6715;67617;-72
2022/04/12 08:48:52;;;;;;;4.77;3.53;;;18.70;34.90;;;;;;20986;6699;124088;-73
2022/04/12 08:51:28;;;;;;;5.50;3.90;;;18.70;35.00;;;;;;20614;6712;305079;-72
2022/04/12 08:54:03;;;;;;;4.55;4.15;;;19.10;32.20;;;;;;20793;6695;307451;-71
2022/04/12 08:56:40;;;;;;;4.13;3.73;;;19.60;30.50;;;;;;20986;6695;118851;-72
2022/04/12 08:59:16;;;;;;;4.45;4.15;;;20.00;30.20;;;;;;20752;6710;309661;-71
2022/04/12 09:01:55;;;;;;;5.13;4.63;;;19.90;30.10;;;;;;20842;6697;118143;-72
2022/04/12 09:04:28;;;;;;;4.37;3.63;;;20.10;31.00;;;;;;20972;6695;117016;-73
2022/04/12 09:07:06;;;;;;;4.43;4.00;;;19.90;31.10;;;;;;20969;6710;117108;-71
2022/04/12 09:09:39;;;;;;;4.50;4.10;;;19.80;31.60;;;;;;20798;6695;305292;-72
2022/04/12 09:12:14;;;;;;;4.37;4.07;;;20.10;30.00;;;;;;21021;6695;116728;-72
2022/04/12 09:14:54;;;;;;;4.10;3.80;;;20.10;31.80;;;;;;20983;6695;121077;-76
2022/04/12 09:17:36;;;;;;;4.60;4.30;;;20.10;31.50;;;;;;20733;6712;328622;-71
2022/04/12 09:20:16;;;;;;;4.30;3.90;;;20.30;30.00;;;;;;20927;6712;116788;-73
2022/04/12 09:22:51;;;;;;;4.77;4.13;;;20.40;31.10;;;;;;20975;6712;119468;-72
2022/04/12 09:25:26;;;;;;;4.30;3.87;;;20.30;31.60;;;;;;20998;6712;122969;-71
2022/04/12 09:28:02;;;;;;;3.73;3.50;;;20.30;32.10;;;;;;20952;6727;116938;-71
2022/04/12 09:30:38;;;;;;;4.13;3.73;;;20.60;30.00;;;;;;20619;6715;299312;-71
2022/04/12 09:33:14;;;;;;;4.15;3.78;;;20.60;30.00;;;;;;20641;6745;276857;-71
2022/04/12 09:35:51;;;;;;;4.63;4.13;;;21.00;30.40;;;;;;20605;6802;276900;-72
2022/04/12 09:38:29;;;;;;;4.00;3.70;;;21.40;29.60;;;;;;20655;6759;306019;-72
2022/04/12 09:41:16;;;;;;;6.30;4.00;;;21.80;30.00;;;;;;20772;6744;117901;-71
2022/04/12 09:44:08;;;;;;;4.40;4.00;;;21.70;29.90;;;;;;20950;6717;116737;-72
2022/04/12 09:46:44;;;;;;;4.20;3.80;;;21.60;30.90;;;;;;20604;6735;304439;-71
2022/04/12 09:49:19;;;;;;;3.63;3.33;;;21.80;29.60;;;;;;20966;6723;116807;-72
2022/04/12 09:51:55;;;;;;;4.13;3.73;;;21.90;30.40;;;;;;20585;6718;306799;-71
2022/04/12 09:54:31;;;;;;;3.97;3.58;;;22.30;29.00;;;;;;20676;6709;307940;-71
2022/04/12 09:57:07;;;;;;;5.40;3.60;;;22.20;28.90;;;;;;20688;6731;287865;-71
2022/04/12 09:59:42;;;;;;;3.30;3.10;;;22.50;29.40;;;;;;20935;6717;117666;-71
2022/04/12 10:02:18;;;;;;;3.70;3.47;;;22.50;29.90;;;;;;20949;6717;117093;-71
2022/04/12 10:04:53;;;;;;;3.50;3.20;;;22.30;30.60;;;;;;20967;6717;117593;-78
2022/04/12 10:07:30;;;;;;;4.33;3.47;;;22.50;29.30;;;;;;20691;6731;306367;-72
2022/04/12 10:10:05;;;;;;;3.07;2.87;;;22.40;29.20;;;;;;20890;6717;119723;-72
2022/04/12 10:12:41;;;;;;;2.93;2.73;;;22.60;29.90;;;;;;20908;6717;117446;-72
2022/04/12 10:15:18;;;;;;;3.00;2.80;;;22.50;30.50;;;;;;20945;6725;118048;-72
2022/04/12 10:17:54;;;;;;;2.90;2.70;;;22.50;30.60;;;;;;20867;6738;117427;-72
2022/04/12 10:20:29;;;;;;;2.77;2.57;;;22.40;30.60;;;;;;20808;6732;117392;-72
2022/04/12 10:23:05;;;;;;;3.13;2.90;;;22.40;30.60;;;;;;20828;6751;117578;-73
2022/04/12 10:25:40;;;;;;;4.37;3.00;;;22.50;30.80;;;;;;20844;6749;116886;-73
2022/04/12 10:28:16;;;;;;;2.97;2.60;;;22.50;31.00;;;;;;20868;6743;117404;-73
2022/04/12 10:30:53;;;;;;;3.30;2.87;;;22.50;31.00;;;;;;20520;6747;312617;-77
2022/04/12 10:33:29;;;;;;;5.30;2.87;;;22.80;29.50;;;;;;20903;6732;118962;-74
2022/04/12 10:36:06;;;;;;;3.13;2.60;;;23.30;27.40;;;;;;20689;6732;308890;-73
2022/04/12 10:38:40;;;;;;;3.63;2.53;;;23.20;27.30;;;;;;20855;6732;117084;-73
2022/04/12 10:41:23;;;;;;;3.60;3.30;;;23.30;28.30;;;;;;20570;6736;307067;-73
2022/04/12 10:43:58;;;;;;;3.30;3.00;;;23.40;28.10;;;;;;20700;6732;305359;-73
2022/04/12 10:46:51;;;;;;;3.10;2.90;;;23.70;27.50;;;;;;20673;6740;307218;-74
2022/04/12 10:49:27;;;;;;;3.60;3.20;;;23.90;27.50;;;;;;20659;6739;308869;-71
2022/04/12 10:52:01;;;;;;;2.83;2.60;;;24.20;28.10;;;;;;20497;6792;337510;-70
2022/04/12 10:54:37;;;;;;;3.07;2.77;;;24.30;25.90;;;;;;20920;6720;120494;-71
2022/04/12 10:57:16;;;;;;;3.30;3.00;;;24.10;27.00;;;;;;20697;6732;278814;-73
2022/04/12 10:59:52;;;;;;;3.13;2.83;;;24.00;27.20;;;;;;20705;6721;276058;-72
2022/04/12 11:02:27;;;;;;;3.67;2.92;;;24.20;27.00;;;;;;20663;6732;310641;-70
2022/04/12 11:05:03;;;;;;;3.15;2.83;;;24.30;26.50;;;;;;20743;6721;304760;-73
2022/04/12 11:07:40;;;;;;;3.27;2.60;;;24.20;28.20;;;;;;20957;6717;118643;-74
2022/04/12 11:10:18;;;;;;;4.90;3.00;;;24.20;27.70;;;;;;20841;6721;117165;-72
2022/04/12 11:13:10;;;;;;;2.40;2.30;;;23.90;28.60;;;;;;20827;6788;117184;-71
2022/04/12 11:15:52;;;;;;;;;;;;;;;;;;;;;
2022/04/12 11:18:30;;;;;;;3.43;2.80;;;23.50;29.30;;;;;;20844;6736;117406;-74
2022/04/12 11:21:00;;;;;;;3.07;2.63;;;23.40;29.30;;;;;;20579;6717;308132;-72
2022/04/12 11:23:45;;;;;;;2.67;2.47;;;23.60;28.10;;;;;;20603;6751;305518;-75
2022/04/12 11:26:38;;;;;;;2.40;2.20;;;24.00;27.30;;;;;;20682;6726;334168;-73
2022/04/12 11:29:16;;;;;;;2.47;2.27;;;24.30;26.10;;;;;;20678;6728;287905;-72
2022/04/12 11:31:50;;;;;;;3.10;2.20;;;24.60;25.40;;;;;;20708;6735;119874;-71
2022/04/12 11:34:34;;;;;;;2.77;2.20;;;24.50;26.70;;;;;;20786;6754;117171;-72
2022/04/12 11:37:10;;;;;;;2.27;1.97;;;24.30;28.00;;;;;;20639;6737;299942;-72
2022/04/12 11:39:51;;;;;;;2.37;2.17;;;24.30;26.50;;;;;;20836;6738;116774;-72
2022/04/12 11:42:21;;;;;;;2.40;2.20;;;24.20;27.50;;;;;;20682;6735;305605;-71
2022/04/12 11:44:57;;;;;;;2.20;2.10;;;24.30;26.40;;;;;;20887;6719;118989;-72
2022/04/12 11:47:34;;;;;;;3.17;2.23;;;24.30;27.20;;;;;;20910;6717;118053;-72
2022/04/12 11:50:15;;;;;;;4.73;2.20;;;24.10;27.80;;;;;;20787;6754;117030;-73
2022/04/12 11:52:51;;;;;;;2.50;2.30;;;24.00;28.30;;;;;;20705;6720;320381;-73
2022/04/12 11:55:27;;;;;;;2.20;2.10;;;24.20;26.70;;;;;;20648;6747;276796;-74
2022/04/12 11:58:04;;;;;;;1.97;1.63;;;24.60;26.90;;;;;;20941;6721;116903;-75
2022/04/12 12:00:40;;;;;;;1.92;1.83;;;24.80;26.50;;;;;;20597;6731;307096;-73
2022/04/12 12:03:16;;;;;;;2.33;1.90;;;24.80;26.50;;;;;;20679;6731;315894;-74
2022/04/12 12:05:51;;;;;;;2.00;1.80;;;25.20;26.10;;;;;;20887;6736;123350;-78
2022/04/12 12:08:30;;;;;;;3.40;2.20;;;25.20;26.80;;;;;;20667;6732;307117;-76
2022/04/12 12:11:10;;;;;;;2.40;2.20;;;25.30;27.20;;;;;;20801;6735;117280;-76
2022/04/12 12:13:45;;;;;;;2.37;2.17;;;25.30;27.20;;;;;;20657;6724;309570;-74
2022/04/12 12:16:22;;;;;;;2.07;1.93;;;25.40;26.30;;;;;;20665;6740;306152;-74
2022/04/12 12:18:56;;;;;;;2.60;2.30;;;25.80;25.60;;;;;;20703;6724;292563;-75
2022/04/12 12:21:32;;;;;;;2.20;2.10;;;26.00;25.80;;;;;;20708;6740;117688;-75
2022/04/12 12:24:08;;;;;;;3.80;1.97;;;25.90;26.50;;;;;;20975;6717;117835;-75
2022/04/12 12:26:43;;;;;;;2.17;2.07;;;25.70;26.80;;;;;;20711;6717;307373;-74
2022/04/12 12:29:19;;;;;;;2.03;1.93;;;25.70;26.40;;;;;;20976;6717;117932;-76
2022/04/12 12:31:55;;;;;;;2.30;1.93;;;25.70;26.80;;;;;;20516;6731;278533;-74
2022/04/12 12:34:31;;;;;;;2.42;2.12;;;26.00;25.60;;;;;;20654;6736;310449;-75
2022/04/12 12:37:06;;;;;;;2.53;2.33;;;26.00;25.60;;;;;;20736;6717;279688;-75
2022/04/12 12:39:42;;;;;;;5.20;2.23;;;26.20;25.20;;;;;;20876;6736;117331;-75
2022/04/12 12:42:18;;;;;;;2.17;1.70;;;26.00;26.00;;;;;;20666;6732;305899;-75
2022/04/12 12:44:53;;;;;;;2.25;1.90;;;26.00;25.40;;;;;;20746;6717;305019;-75
2022/04/12 12:47:29;;;;;;;2.60;1.98;;;26.10;25.00;;;;;;20747;6716;308994;-75
2022/04/12 12:50:09;;;;;;;2.33;1.90;;;26.30;24.90;;;;;;20731;6720;307013;-75
2022/04/12 12:52:44;;;;;;;1.70;1.60;;;26.40;25.00;;;;;;20859;6749;122488;-75
2022/04/12 12:55:21;;;;;;;2.00;1.80;;;26.10;25.70;;;;;;20840;6754;117090;-75
2022/04/12 12:57:58;;;;;;;3.60;1.67;;;25.80;26.40;;;;;;20888;6740;118204;-75
2022/04/12 13:00:34;;;;;;;1.97;1.60;;;25.50;27.00;;;;;;20869;6717;117725;-75
2022/04/12 13:03:10;;;;;;;2.23;1.90;;;25.20;27.40;;;;;;20668;6749;281989;-74
2022/04/12 13:05:58;;;;;;;2.43;1.60;;;25.40;26.10;;;;;;20831;6754;117196;-74
2022/04/12 13:08:34;;;;;;;2.73;1.70;;;25.40;27.60;;;;;;20901;6726;117380;-75
2022/04/12 13:11:11;;;;;;;1.60;1.50;;;25.30;27.50;;;;;;20520;6746;312436;-75
2022/04/12 13:13:47;;;;;;;1.30;1.30;;;25.60;25.80;;;;;;20919;6736;116818;-76
2022/04/12 13:16:22;;;;;;;1.67;1.40;;;25.60;26.50;;;;;;20847;6749;116935;-76
2022/04/12 13:19:01;;;;;;;1.67;1.57;;;25.40;26.70;;;;;;20645;6743;280890;-74
2022/04/12 13:21:38;;;;;;;2.93;1.53;;;25.90;25.20;;;;;;20495;6742;308649;-74
2022/04/12 13:24:13;;;;;;;1.60;1.50;;;25.80;25.10;;;;;;20907;6732;117825;-77
2022/04/12 13:26:50;;;;;;;2.90;1.67;;;25.80;26.20;;;;;;20894;6732;117467;-74
2022/04/12 13:29:26;;;;;;;2.50;1.50;;;25.80;25.40;;;;;;20692;6733;280758;-75